sensor_id;sensor_type;location;lat;lon;timestamp;P1;durP1;ratioP1;P2;durP2;ratioP2
5225;SDS011;2632;51.666;7.146;2023-02-15T00:01:34;32.30;;;15.13;;
5225;SDS011;2632;51.666;7.146;2023-02-15T00:04:02;34.70;;;15.33;;
5225;SDS011;2632;51.666;7.146;2023-02-15T00:06:29;33.13;;;14.20;;
5225;SDS011;2632;51.666;7.146;2023-02-15T00:08:56;36.10;;;15.53;;
5225;SDS011;2632;51.666;7.146;2023-02-15T00:11:23;34.90;;;15.70;;
5225;SDS011;2632;51.666;7.146;2023-02-15T00:14:07;34.00;;;14.80;;
5225;SDS011;2632;51.666;7.146;2023-02-15T00:16:39;31.70;;;13.73;;
5225;SDS011;2632;51.666;7.146;2023-02-15T00:19:07;28.23;;;13.87;;
5225;SDS011;2632;51.666;7.146;2023-02-15T00:21:35;32.27;;;15.30;;
5225;SDS011;2632;51.666;7.146;2023-02-15T00:24:03;26.90;;;14.37;;
5225;SDS011;2632;51.666;7.146;2023-02-15T00:26:32;32.87;;;14.47;;
5225;SDS011;2632;51.666;7.146;2023-02-15T00:28:59;30.80;;;14.17;;
5225;SDS011;2632;51.666;7.146;2023-02-15T00:31:27;27.40;;;13.53;;
5225;SDS011;2632;51.666;7.146;2023-02-15T00:34:03;29.57;;;13.60;;
5225;SDS011;2632;51.666;7.146;2023-02-15T00:36:36;32.03;;;13.87;;
5225;SDS011;2632;51.666;7.146;2023-02-15T00:39:03;30.50;;;15.00;;
5225;SDS011;2632;51.666;7.146;2023-02-15T00:41:31;28.10;;;13.50;;
5225;SDS011;2632;51.666;7.146;2023-02-15T00:43:58;29.50;;;13.97;;
5225;SDS011;2632;51.666;7.146;2023-02-15T00:46:25;27.90;;;13.57;;
5225;SDS011;2632;51.666;7.146;2023-02-15T00:48:52;27.03;;;13.70;;
5225;SDS011;2632;51.666;7.146;2023-02-15T00:51:18;31.47;;;13.53;;
5225;SDS011;2632;51.666;7.146;2023-02-15T00:53:46;24.97;;;14.50;;
5225;SDS011;2632;51.666;7.146;2023-02-15T00:56:13;30.63;;;14.37;;
5225;SDS011;2632;51.666;7.146;2023-02-15T00:58:40;25.40;;;13.80;;
5225;SDS011;2632;51.666;7.146;2023-02-15T01:01:08;32.77;;;13.60;;
5225;SDS011;2632;51.666;7.146;2023-02-15T01:03:40;33.37;;;14.77;;
5225;SDS011;2632;51.666;7.146;2023-02-15T01:06:10;31.17;;;14.50;;
5225;SDS011;2632;51.666;7.146;2023-02-15T01:08:37;28.80;;;14.07;;
5225;SDS011;2632;51.666;7.146;2023-02-15T01:11:05;26.20;;;13.47;;
5225;SDS011;2632;51.666;7.146;2023-02-15T01:13:33;30.20;;;14.43;;
5225;SDS011;2632;51.666;7.146;2023-02-15T01:16:01;33.07;;;13.80;;
5225;SDS011;2632;51.666;7.146;2023-02-15T01:18:30;26.83;;;13.60;;
5225;SDS011;2632;51.666;7.146;2023-02-15T01:20:57;32.30;;;14.57;;
5225;SDS011;2632;51.666;7.146;2023-02-15T01:23:23;30.73;;;14.33;;
5225;SDS011;2632;51.666;7.146;2023-02-15T01:25:50;27.93;;;13.90;;
5225;SDS011;2632;51.666;7.146;2023-02-15T01:28:17;35.37;;;13.77;;
5225;SDS011;2632;51.666;7.146;2023-02-15T01:30:43;21.03;;;10.53;;
5225;SDS011;2632;51.666;7.146;2023-02-15T01:33:10;32.00;;;15.00;;
5225;SDS011;2632;51.666;7.146;2023-02-15T01:35:44;27.17;;;13.53;;
5225;SDS011;2632;51.666;7.146;2023-02-15T01:38:12;31.10;;;14.50;;
5225;SDS011;2632;51.666;7.146;2023-02-15T01:40:40;32.10;;;14.40;;
5225;SDS011;2632;51.666;7.146;2023-02-15T01:43:10;27.57;;;13.87;;
5225;SDS011;2632;51.666;7.146;2023-02-15T01:45:38;29.73;;;14.70;;
5225;SDS011;2632;51.666;7.146;2023-02-15T01:48:22;26.23;;;13.50;;
5225;SDS011;2632;51.666;7.146;2023-02-15T01:50:56;32.80;;;12.93;;
5225;SDS011;2632;51.666;7.146;2023-02-15T01:53:27;28.50;;;13.23;;
5225;SDS011;2632;51.666;7.146;2023-02-15T01:56:06;32.67;;;15.20;;
5225;SDS011;2632;51.666;7.146;2023-02-15T01:58:38;29.60;;;13.67;;
5225;SDS011;2632;51.666;7.146;2023-02-15T02:01:05;30.40;;;13.67;;
5225;SDS011;2632;51.666;7.146;2023-02-15T02:06:07;26.97;;;14.10;;
5225;SDS011;2632;51.666;7.146;2023-02-15T02:08:34;31.50;;;14.80;;
5225;SDS011;2632;51.666;7.146;2023-02-15T02:11:01;36.77;;;14.80;;
5225;SDS011;2632;51.666;7.146;2023-02-15T02:13:27;28.20;;;13.70;;
5225;SDS011;2632;51.666;7.146;2023-02-15T02:16:03;33.47;;;14.13;;
5225;SDS011;2632;51.666;7.146;2023-02-15T02:24:23;30.30;;;13.63;;
5225;SDS011;2632;51.666;7.146;2023-02-15T02:27:36;30.07;;;15.37;;
5225;SDS011;2632;51.666;7.146;2023-02-15T02:35:43;27.63;;;13.50;;
5225;SDS011;2632;51.666;7.146;2023-02-15T02:38:21;32.83;;;14.80;;
5225;SDS011;2632;51.666;7.146;2023-02-15T02:46:51;34.07;;;14.47;;
5225;SDS011;2632;51.666;7.146;2023-02-15T02:52:32;35.13;;;14.77;;
5225;SDS011;2632;51.666;7.146;2023-02-15T02:55:13;36.30;;;16.00;;
5225;SDS011;2632;51.666;7.146;2023-02-15T03:00:50;36.67;;;15.07;;
5225;SDS011;2632;51.666;7.146;2023-02-15T03:03:25;33.23;;;15.17;;
5225;SDS011;2632;51.666;7.146;2023-02-15T03:05:57;35.33;;;14.73;;
5225;SDS011;2632;51.666;7.146;2023-02-15T03:08:31;36.20;;;15.23;;
5225;SDS011;2632;51.666;7.146;2023-02-15T03:11:03;32.97;;;13.50;;
5225;SDS011;2632;51.666;7.146;2023-02-15T03:13:30;29.40;;;12.60;;
5225;SDS011;2632;51.666;7.146;2023-02-15T03:15:58;30.07;;;13.80;;
5225;SDS011;2632;51.666;7.146;2023-02-15T03:18:46;33.30;;;13.73;;
5225;SDS011;2632;51.666;7.146;2023-02-15T03:21:26;34.27;;;15.20;;
5225;SDS011;2632;51.666;7.146;2023-02-15T03:24:00;30.37;;;14.87;;
5225;SDS011;2632;51.666;7.146;2023-02-15T03:26:33;34.60;;;14.67;;
5225;SDS011;2632;51.666;7.146;2023-02-15T03:29:01;33.50;;;13.90;;
5225;SDS011;2632;51.666;7.146;2023-02-15T03:31:31;29.00;;;13.97;;
5225;SDS011;2632;51.666;7.146;2023-02-15T03:34:02;34.93;;;14.33;;
5225;SDS011;2632;51.666;7.146;2023-02-15T03:36:44;31.70;;;14.43;;
5225;SDS011;2632;51.666;7.146;2023-02-15T03:39:30;32.47;;;14.43;;
5225;SDS011;2632;51.666;7.146;2023-02-15T03:44:46;33.17;;;15.20;;
5225;SDS011;2632;51.666;7.146;2023-02-15T03:47:20;34.07;;;15.27;;
5225;SDS011;2632;51.666;7.146;2023-02-15T03:49:53;36.33;;;14.30;;
5225;SDS011;2632;51.666;7.146;2023-02-15T03:52:27;28.33;;;13.83;;
5225;SDS011;2632;51.666;7.146;2023-02-15T03:54:55;31.57;;;13.60;;
5225;SDS011;2632;51.666;7.146;2023-02-15T03:57:23;36.03;;;15.23;;
5225;SDS011;2632;51.666;7.146;2023-02-15T04:00:15;32.07;;;15.53;;
5225;SDS011;2632;51.666;7.146;2023-02-15T04:03:20;34.17;;;13.80;;
5225;SDS011;2632;51.666;7.146;2023-02-15T04:05:54;35.20;;;14.23;;
5225;SDS011;2632;51.666;7.146;2023-02-15T04:08:21;34.20;;;14.47;;
5225;SDS011;2632;51.666;7.146;2023-02-15T04:11:07;32.10;;;14.63;;
5225;SDS011;2632;51.666;7.146;2023-02-15T04:13:34;33.30;;;14.47;;
5225;SDS011;2632;51.666;7.146;2023-02-15T04:16:04;37.63;;;14.83;;
5225;SDS011;2632;51.666;7.146;2023-02-15T04:18:36;47.43;;;15.50;;
5225;SDS011;2632;51.666;7.146;2023-02-15T04:21:24;31.43;;;15.13;;
5225;SDS011;2632;51.666;7.146;2023-02-15T04:24:11;34.50;;;14.53;;
5225;SDS011;2632;51.666;7.146;2023-02-15T04:26:57;35.20;;;14.03;;
5225;SDS011;2632;51.666;7.146;2023-02-15T04:29:24;34.07;;;14.17;;
5225;SDS011;2632;51.666;7.146;2023-02-15T04:31:54;44.87;;;16.47;;
5225;SDS011;2632;51.666;7.146;2023-02-15T04:34:21;36.20;;;14.53;;
5225;SDS011;2632;51.666;7.146;2023-02-15T04:36:48;33.03;;;15.53;;
5225;SDS011;2632;51.666;7.146;2023-02-15T04:39:17;33.03;;;14.40;;
5225;SDS011;2632;51.666;7.146;2023-02-15T04:41:44;34.40;;;14.87;;
5225;SDS011;2632;51.666;7.146;2023-02-15T04:44:11;32.23;;;15.00;;
5225;SDS011;2632;51.666;7.146;2023-02-15T04:46:38;30.73;;;14.93;;
5225;SDS011;2632;51.666;7.146;2023-02-15T04:49:04;30.80;;;14.27;;
5225;SDS011;2632;51.666;7.146;2023-02-15T04:51:31;32.87;;;14.63;;
5225;SDS011;2632;51.666;7.146;2023-02-15T04:53:58;37.60;;;14.73;;
5225;SDS011;2632;51.666;7.146;2023-02-15T04:56:24;30.93;;;13.40;;
5225;SDS011;2632;51.666;7.146;2023-02-15T04:58:51;38.90;;;15.97;;
5225;SDS011;2632;51.666;7.146;2023-02-15T05:01:18;35.03;;;14.87;;
5225;SDS011;2632;51.666;7.146;2023-02-15T05:03:44;28.70;;;14.37;;
5225;SDS011;2632;51.666;7.146;2023-02-15T05:06:11;32.47;;;14.40;;
5225;SDS011;2632;51.666;7.146;2023-02-15T05:08:37;37.70;;;14.13;;
5225;SDS011;2632;51.666;7.146;2023-02-15T05:11:04;35.20;;;15.33;;
5225;SDS011;2632;51.666;7.146;2023-02-15T05:13:30;29.40;;;14.97;;
5225;SDS011;2632;51.666;7.146;2023-02-15T05:15:57;34.13;;;15.30;;
5225;SDS011;2632;51.666;7.146;2023-02-15T05:18:24;37.17;;;15.63;;
5225;SDS011;2632;51.666;7.146;2023-02-15T05:20:51;38.60;;;15.90;;
5225;SDS011;2632;51.666;7.146;2023-02-15T05:23:17;34.00;;;14.87;;
5225;SDS011;2632;51.666;7.146;2023-02-15T05:25:47;33.53;;;14.63;;
5225;SDS011;2632;51.666;7.146;2023-02-15T05:28:33;35.53;;;15.10;;
5225;SDS011;2632;51.666;7.146;2023-02-15T05:31:08;32.27;;;15.97;;
5225;SDS011;2632;51.666;7.146;2023-02-15T05:33:40;36.03;;;16.03;;
5225;SDS011;2632;51.666;7.146;2023-02-15T05:36:07;31.10;;;14.37;;
5225;SDS011;2632;51.666;7.146;2023-02-15T05:38:34;33.97;;;14.80;;
5225;SDS011;2632;51.666;7.146;2023-02-15T05:41:04;37.63;;;15.00;;
5225;SDS011;2632;51.666;7.146;2023-02-15T05:43:31;35.77;;;15.63;;
5225;SDS011;2632;51.666;7.146;2023-02-15T05:45:58;31.13;;;14.43;;
5225;SDS011;2632;51.666;7.146;2023-02-15T05:48:26;37.47;;;15.60;;
5225;SDS011;2632;51.666;7.146;2023-02-15T05:50:59;37.07;;;15.40;;
5225;SDS011;2632;51.666;7.146;2023-02-15T05:53:32;38.97;;;16.60;;
5225;SDS011;2632;51.666;7.146;2023-02-15T05:56:04;37.27;;;16.00;;
5225;SDS011;2632;51.666;7.146;2023-02-15T05:58:32;34.43;;;15.40;;
5225;SDS011;2632;51.666;7.146;2023-02-15T06:01:13;31.43;;;14.90;;
5225;SDS011;2632;51.666;7.146;2023-02-15T06:03:41;40.27;;;16.93;;
5225;SDS011;2632;51.666;7.146;2023-02-15T06:06:08;36.63;;;16.70;;
5225;SDS011;2632;51.666;7.146;2023-02-15T06:08:36;43.90;;;16.63;;
5225;SDS011;2632;51.666;7.146;2023-02-15T06:11:03;42.93;;;16.57;;
5225;SDS011;2632;51.666;7.146;2023-02-15T06:13:30;38.70;;;17.13;;
5225;SDS011;2632;51.666;7.146;2023-02-15T06:15:57;38.90;;;16.23;;
5225;SDS011;2632;51.666;7.146;2023-02-15T06:18:24;41.60;;;18.07;;
5225;SDS011;2632;51.666;7.146;2023-02-15T06:20:51;35.87;;;16.33;;
5225;SDS011;2632;51.666;7.146;2023-02-15T06:23:18;34.27;;;15.20;;
5225;SDS011;2632;51.666;7.146;2023-02-15T06:25:45;44.43;;;17.47;;
5225;SDS011;2632;51.666;7.146;2023-02-15T06:28:12;39.20;;;17.03;;
5225;SDS011;2632;51.666;7.146;2023-02-15T06:30:39;45.40;;;16.70;;
5225;SDS011;2632;51.666;7.146;2023-02-15T06:33:05;34.23;;;15.53;;
5225;SDS011;2632;51.666;7.146;2023-02-15T06:35:32;34.80;;;16.40;;
5225;SDS011;2632;51.666;7.146;2023-02-15T06:37:59;34.47;;;16.00;;
5225;SDS011;2632;51.666;7.146;2023-02-15T06:40:25;34.23;;;16.10;;
5225;SDS011;2632;51.666;7.146;2023-02-15T06:42:52;36.80;;;16.30;;
5225;SDS011;2632;51.666;7.146;2023-02-15T06:45:18;36.07;;;16.10;;
5225;SDS011;2632;51.666;7.146;2023-02-15T06:47:45;39.90;;;17.10;;
5225;SDS011;2632;51.666;7.146;2023-02-15T06:50:11;49.53;;;17.63;;
5225;SDS011;2632;51.666;7.146;2023-02-15T06:52:38;41.50;;;18.20;;
5225;SDS011;2632;51.666;7.146;2023-02-15T06:55:05;40.20;;;18.03;;
5225;SDS011;2632;51.666;7.146;2023-02-15T06:57:32;38.93;;;17.27;;
5225;SDS011;2632;51.666;7.146;2023-02-15T06:59:59;39.73;;;17.40;;
5225;SDS011;2632;51.666;7.146;2023-02-15T07:02:26;43.03;;;18.30;;
5225;SDS011;2632;51.666;7.146;2023-02-15T07:04:52;38.70;;;18.13;;
5225;SDS011;2632;51.666;7.146;2023-02-15T07:07:19;41.97;;;18.30;;
5225;SDS011;2632;51.666;7.146;2023-02-15T07:09:46;45.90;;;19.23;;
5225;SDS011;2632;51.666;7.146;2023-02-15T07:12:12;43.93;;;18.57;;
5225;SDS011;2632;51.666;7.146;2023-02-15T07:14:58;36.67;;;17.17;;
5225;SDS011;2632;51.666;7.146;2023-02-15T07:17:25;36.73;;;16.87;;
5225;SDS011;2632;51.666;7.146;2023-02-15T07:20:03;36.57;;;17.73;;
5225;SDS011;2632;51.666;7.146;2023-02-15T07:22:31;43.83;;;17.63;;
5225;SDS011;2632;51.666;7.146;2023-02-15T07:24:59;43.37;;;19.07;;
5225;SDS011;2632;51.666;7.146;2023-02-15T07:27:26;48.27;;;21.40;;
5225;SDS011;2632;51.666;7.146;2023-02-15T07:29:53;46.00;;;19.13;;
5225;SDS011;2632;51.666;7.146;2023-02-15T07:32:20;49.77;;;21.00;;
5225;SDS011;2632;51.666;7.146;2023-02-15T07:34:46;50.00;;;21.30;;
5225;SDS011;2632;51.666;7.146;2023-02-15T07:37:13;49.90;;;21.57;;
5225;SDS011;2632;51.666;7.146;2023-02-15T07:39:39;45.33;;;21.20;;
5225;SDS011;2632;51.666;7.146;2023-02-15T07:42:06;46.93;;;20.57;;
5225;SDS011;2632;51.666;7.146;2023-02-15T07:44:32;50.27;;;20.50;;
5225;SDS011;2632;51.666;7.146;2023-02-15T07:46:59;47.40;;;20.67;;
5225;SDS011;2632;51.666;7.146;2023-02-15T07:49:25;47.87;;;20.07;;
5225;SDS011;2632;51.666;7.146;2023-02-15T07:51:52;47.93;;;19.60;;
5225;SDS011;2632;51.666;7.146;2023-02-15T07:54:18;43.57;;;18.90;;
5225;SDS011;2632;51.666;7.146;2023-02-15T07:56:45;42.73;;;20.13;;
5225;SDS011;2632;51.666;7.146;2023-02-15T07:59:12;59.37;;;20.73;;
5225;SDS011;2632;51.666;7.146;2023-02-15T08:01:39;41.13;;;18.70;;
5225;SDS011;2632;51.666;7.146;2023-02-15T08:04:06;41.10;;;18.27;;
5225;SDS011;2632;51.666;7.146;2023-02-15T08:06:34;45.63;;;18.00;;
5225;SDS011;2632;51.666;7.146;2023-02-15T08:09:05;39.70;;;17.10;;
5225;SDS011;2632;51.666;7.146;2023-02-15T08:11:34;41.57;;;18.00;;
5225;SDS011;2632;51.666;7.146;2023-02-15T08:14:06;39.93;;;17.67;;
5225;SDS011;2632;51.666;7.146;2023-02-15T08:16:41;43.13;;;17.23;;
5225;SDS011;2632;51.666;7.146;2023-02-15T08:19:09;40.07;;;18.03;;
5225;SDS011;2632;51.666;7.146;2023-02-15T08:21:39;45.83;;;18.70;;
5225;SDS011;2632;51.666;7.146;2023-02-15T08:24:08;39.63;;;16.50;;
5225;SDS011;2632;51.666;7.146;2023-02-15T08:26:35;36.53;;;17.10;;
5225;SDS011;2632;51.666;7.146;2023-02-15T08:29:03;41.60;;;19.00;;
5225;SDS011;2632;51.666;7.146;2023-02-15T08:31:33;40.23;;;18.50;;
5225;SDS011;2632;51.666;7.146;2023-02-15T08:34:00;39.67;;;18.33;;
5225;SDS011;2632;51.666;7.146;2023-02-15T08:36:27;41.07;;;19.37;;
5225;SDS011;2632;51.666;7.146;2023-02-15T08:38:59;46.20;;;19.00;;
5225;SDS011;2632;51.666;7.146;2023-02-15T08:41:28;43.00;;;19.10;;
5225;SDS011;2632;51.666;7.146;2023-02-15T08:43:57;43.47;;;19.37;;
5225;SDS011;2632;51.666;7.146;2023-02-15T08:46:26;40.07;;;19.40;;
5225;SDS011;2632;51.666;7.146;2023-02-15T08:48:55;40.33;;;18.60;;
5225;SDS011;2632;51.666;7.146;2023-02-15T08:51:23;43.07;;;18.30;;
5225;SDS011;2632;51.666;7.146;2023-02-15T08:53:52;42.53;;;19.97;;
5225;SDS011;2632;51.666;7.146;2023-02-15T08:56:21;37.90;;;19.00;;
5225;SDS011;2632;51.666;7.146;2023-02-15T08:58:59;40.73;;;19.20;;
5225;SDS011;2632;51.666;7.146;2023-02-15T09:01:27;42.30;;;18.77;;
5225;SDS011;2632;51.666;7.146;2023-02-15T09:03:56;42.10;;;20.30;;
5225;SDS011;2632;51.666;7.146;2023-02-15T09:06:25;47.33;;;21.73;;
5225;SDS011;2632;51.666;7.146;2023-02-15T09:08:53;42.70;;;19.80;;
5225;SDS011;2632;51.666;7.146;2023-02-15T09:11:21;46.13;;;20.20;;
5225;SDS011;2632;51.666;7.146;2023-02-15T09:14:00;52.07;;;21.47;;
5225;SDS011;2632;51.666;7.146;2023-02-15T09:16:30;41.47;;;20.10;;
5225;SDS011;2632;51.666;7.146;2023-02-15T09:18:59;47.30;;;20.57;;
5225;SDS011;2632;51.666;7.146;2023-02-15T09:21:35;42.77;;;19.27;;
5225;SDS011;2632;51.666;7.146;2023-02-15T09:24:04;49.63;;;18.47;;
5225;SDS011;2632;51.666;7.146;2023-02-15T09:26:34;40.37;;;19.20;;
5225;SDS011;2632;51.666;7.146;2023-02-15T09:29:03;39.30;;;17.90;;
5225;SDS011;2632;51.666;7.146;2023-02-15T09:31:31;47.90;;;20.60;;
5225;SDS011;2632;51.666;7.146;2023-02-15T09:34:10;42.30;;;20.77;;
5225;SDS011;2632;51.666;7.146;2023-02-15T09:36:39;41.63;;;18.97;;
5225;SDS011;2632;51.666;7.146;2023-02-15T09:53:21;45.33;;;19.47;;
5225;SDS011;2632;51.666;7.146;2023-02-15T09:56:09;38.67;;;17.83;;
5225;SDS011;2632;51.666;7.146;2023-02-15T09:58:55;34.40;;;16.97;;
5225;SDS011;2632;51.666;7.146;2023-02-15T10:01:50;37.10;;;16.57;;
5225;SDS011;2632;51.666;7.146;2023-02-15T10:07:56;35.80;;;16.23;;
5225;SDS011;2632;51.666;7.146;2023-02-15T10:11:05;32.33;;;15.70;;
5225;SDS011;2632;51.666;7.146;2023-02-15T10:16:31;32.40;;;14.80;;
5225;SDS011;2632;51.666;7.146;2023-02-15T10:19:23;38.73;;;15.80;;
5225;SDS011;2632;51.666;7.146;2023-02-15T10:22:15;34.20;;;15.70;;
5225;SDS011;2632;51.666;7.146;2023-02-15T10:27:56;39.40;;;16.20;;
5225;SDS011;2632;51.666;7.146;2023-02-15T10:30:48;32.97;;;16.03;;
5225;SDS011;2632;51.666;7.146;2023-02-15T10:36:11;32.07;;;15.90;;
5225;SDS011;2632;51.666;7.146;2023-02-15T10:38:56;32.97;;;15.57;;
5225;SDS011;2632;51.666;7.146;2023-02-15T10:41:43;36.50;;;14.73;;
5225;SDS011;2632;51.666;7.146;2023-02-15T10:44:27;37.30;;;17.17;;
5225;SDS011;2632;51.666;7.146;2023-02-15T10:53:08;35.10;;;17.80;;
5225;SDS011;2632;51.666;7.146;2023-02-15T10:55:44;34.30;;;16.87;;
5225;SDS011;2632;51.666;7.146;2023-02-15T11:01:17;34.07;;;16.77;;
5225;SDS011;2632;51.666;7.146;2023-02-15T11:04:05;42.53;;;18.20;;
5225;SDS011;2632;51.666;7.146;2023-02-15T11:06:53;36.47;;;18.90;;
5225;SDS011;2632;51.666;7.146;2023-02-15T11:09:30;36.43;;;17.90;;
5225;SDS011;2632;51.666;7.146;2023-02-15T11:12:04;38.60;;;19.40;;
5225;SDS011;2632;51.666;7.146;2023-02-15T11:14:43;36.33;;;16.70;;
5225;SDS011;2632;51.666;7.146;2023-02-15T11:17:25;37.03;;;17.17;;
5225;SDS011;2632;51.666;7.146;2023-02-15T11:20:34;43.20;;;18.50;;
5225;SDS011;2632;51.666;7.146;2023-02-15T11:23:01;35.17;;;18.10;;
5225;SDS011;2632;51.666;7.146;2023-02-15T11:25:29;34.87;;;17.00;;
5225;SDS011;2632;51.666;7.146;2023-02-15T11:27:58;38.47;;;18.70;;
5225;SDS011;2632;51.666;7.146;2023-02-15T11:30:34;37.20;;;17.43;;
5225;SDS011;2632;51.666;7.146;2023-02-15T11:33:15;35.77;;;17.23;;
5225;SDS011;2632;51.666;7.146;2023-02-15T11:35:49;33.57;;;17.73;;
5225;SDS011;2632;51.666;7.146;2023-02-15T11:38:21;33.43;;;16.53;;
5225;SDS011;2632;51.666;7.146;2023-02-15T11:40:53;33.73;;;17.30;;
5225;SDS011;2632;51.666;7.146;2023-02-15T11:43:28;35.17;;;17.70;;
5225;SDS011;2632;51.666;7.146;2023-02-15T11:46:04;28.00;;;15.90;;
5225;SDS011;2632;51.666;7.146;2023-02-15T11:48:32;31.10;;;17.67;;
5225;SDS011;2632;51.666;7.146;2023-02-15T11:50:59;33.50;;;16.40;;
5225;SDS011;2632;51.666;7.146;2023-02-15T11:53:31;29.50;;;15.23;;
5225;SDS011;2632;51.666;7.146;2023-02-15T11:56:00;33.73;;;16.30;;
5225;SDS011;2632;51.666;7.146;2023-02-15T12:00:56;35.03;;;17.10;;
5225;SDS011;2632;51.666;7.146;2023-02-15T12:03:47;29.60;;;16.73;;
5225;SDS011;2632;51.666;7.146;2023-02-15T12:06:33;31.40;;;16.10;;
5225;SDS011;2632;51.666;7.146;2023-02-15T12:09:06;37.10;;;16.60;;
5225;SDS011;2632;51.666;7.146;2023-02-15T12:11:43;29.57;;;16.50;;
5225;SDS011;2632;51.666;7.146;2023-02-15T12:14:10;31.27;;;14.67;;
5225;SDS011;2632;51.666;7.146;2023-02-15T12:16:45;27.43;;;15.63;;
5225;SDS011;2632;51.666;7.146;2023-02-15T12:19:36;28.20;;;15.83;;
5225;SDS011;2632;51.666;7.146;2023-02-15T12:22:06;26.83;;;13.67;;
5225;SDS011;2632;51.666;7.146;2023-02-15T12:24:45;28.90;;;14.80;;
5225;SDS011;2632;51.666;7.146;2023-02-15T12:29:42;27.83;;;13.83;;
5225;SDS011;2632;51.666;7.146;2023-02-15T12:32:17;21.83;;;12.63;;
5225;SDS011;2632;51.666;7.146;2023-02-15T12:34:52;25.20;;;12.57;;
5225;SDS011;2632;51.666;7.146;2023-02-15T12:37:27;26.00;;;13.27;;
5225;SDS011;2632;51.666;7.146;2023-02-15T12:39:58;24.40;;;12.93;;
5225;SDS011;2632;51.666;7.146;2023-02-15T12:42:26;24.90;;;12.97;;
5225;SDS011;2632;51.666;7.146;2023-02-15T12:44:59;23.13;;;12.00;;
5225;SDS011;2632;51.666;7.146;2023-02-15T12:47:28;28.60;;;12.97;;
5225;SDS011;2632;51.666;7.146;2023-02-15T12:50:04;24.93;;;12.67;;
5225;SDS011;2632;51.666;7.146;2023-02-15T12:52:37;20.37;;;10.30;;
5225;SDS011;2632;51.666;7.146;2023-02-15T12:55:22;20.50;;;10.23;;
5225;SDS011;2632;51.666;7.146;2023-02-15T12:58:08;17.57;;;9.33;;
5225;SDS011;2632;51.666;7.146;2023-02-15T13:00:41;22.37;;;9.93;;
5225;SDS011;2632;51.666;7.146;2023-02-15T13:03:14;21.00;;;8.60;;
5225;SDS011;2632;51.666;7.146;2023-02-15T13:05:46;19.53;;;9.33;;
5225;SDS011;2632;51.666;7.146;2023-02-15T13:13:25;18.83;;;8.70;;
5225;SDS011;2632;51.666;7.146;2023-02-15T13:15:56;17.37;;;8.70;;
5225;SDS011;2632;51.666;7.146;2023-02-15T13:21:04;19.20;;;8.97;;
5225;SDS011;2632;51.666;7.146;2023-02-15T13:23:39;19.30;;;9.23;;
5225;SDS011;2632;51.666;7.146;2023-02-15T13:26:14;17.70;;;8.60;;
5225;SDS011;2632;51.666;7.146;2023-02-15T13:28:45;15.57;;;8.67;;
5225;SDS011;2632;51.666;7.146;2023-02-15T13:31:18;22.67;;;9.60;;
5225;SDS011;2632;51.666;7.146;2023-02-15T13:33:50;19.40;;;9.47;;
5225;SDS011;2632;51.666;7.146;2023-02-15T13:36:33;17.70;;;8.97;;
5225;SDS011;2632;51.666;7.146;2023-02-15T13:39:20;23.17;;;9.27;;
5225;SDS011;2632;51.666;7.146;2023-02-15T13:42:15;18.97;;;9.90;;
5225;SDS011;2632;51.666;7.146;2023-02-15T13:45:39;22.83;;;10.10;;
5225;SDS011;2632;51.666;7.146;2023-02-15T13:47:55;20.43;;;10.20;;
5225;SDS011;2632;51.666;7.146;2023-02-15T14:07:30;26.23;;;10.47;;
5225;SDS011;2632;51.666;7.146;2023-02-15T14:12:57;22.57;;;10.73;;
5225;SDS011;2632;51.666;7.146;2023-02-15T14:21:02;26.17;;;10.90;;
5225;SDS011;2632;51.666;7.146;2023-02-15T14:24:04;19.20;;;9.73;;
5225;SDS011;2632;51.666;7.146;2023-02-15T14:29:55;25.87;;;12.40;;
5225;SDS011;2632;51.666;7.146;2023-02-15T14:32:34;24.73;;;12.37;;
5225;SDS011;2632;51.666;7.146;2023-02-15T14:35:13;24.90;;;11.67;;
5225;SDS011;2632;51.666;7.146;2023-02-15T14:37:43;23.03;;;10.97;;
5225;SDS011;2632;51.666;7.146;2023-02-15T14:46:07;17.30;;;9.67;;
5225;SDS011;2632;51.666;7.146;2023-02-15T14:48:55;20.83;;;9.87;;
5225;SDS011;2632;51.666;7.146;2023-02-15T14:57:20;22.17;;;11.13;;
5225;SDS011;2632;51.666;7.146;2023-02-15T14:59:45;21.53;;;10.40;;
5225;SDS011;2632;51.666;7.146;2023-02-15T15:02:16;24.10;;;11.20;;
5225;SDS011;2632;51.666;7.146;2023-02-15T15:04:58;22.17;;;10.43;;
5225;SDS011;2632;51.666;7.146;2023-02-15T15:07:41;24.00;;;10.43;;
5225;SDS011;2632;51.666;7.146;2023-02-15T15:15:33;25.27;;;11.20;;
5225;SDS011;2632;51.666;7.146;2023-02-15T15:18:09;24.00;;;11.63;;
5225;SDS011;2632;51.666;7.146;2023-02-15T15:20:56;21.90;;;10.80;;
5225;SDS011;2632;51.666;7.146;2023-02-15T15:23:40;27.60;;;11.93;;
5225;SDS011;2632;51.666;7.146;2023-02-15T15:26:22;23.67;;;10.57;;
5225;SDS011;2632;51.666;7.146;2023-02-15T15:28:53;20.60;;;9.60;;
5225;SDS011;2632;51.666;7.146;2023-02-15T15:31:39;23.80;;;11.70;;
5225;SDS011;2632;51.666;7.146;2023-02-15T15:37:41;22.30;;;10.43;;
5225;SDS011;2632;51.666;7.146;2023-02-15T15:43:15;22.50;;;10.47;;
5225;SDS011;2632;51.666;7.146;2023-02-15T15:48:45;22.13;;;10.50;;
5225;SDS011;2632;51.666;7.146;2023-02-15T15:51:14;24.20;;;9.87;;
5225;SDS011;2632;51.666;7.146;2023-02-15T15:53:46;21.50;;;10.17;;
5225;SDS011;2632;51.666;7.146;2023-02-15T15:56:18;20.67;;;10.20;;
5225;SDS011;2632;51.666;7.146;2023-02-15T15:58:50;29.60;;;11.60;;
5225;SDS011;2632;51.666;7.146;2023-02-15T16:01:28;23.90;;;10.77;;
5225;SDS011;2632;51.666;7.146;2023-02-15T16:03:58;25.47;;;10.57;;
5225;SDS011;2632;51.666;7.146;2023-02-15T16:06:26;26.73;;;10.83;;
5225;SDS011;2632;51.666;7.146;2023-02-15T16:09:12;26.60;;;10.97;;
5225;SDS011;2632;51.666;7.146;2023-02-15T16:11:47;24.90;;;11.30;;
5225;SDS011;2632;51.666;7.146;2023-02-15T16:14:29;25.53;;;10.43;;
5225;SDS011;2632;51.666;7.146;2023-02-15T16:16:59;18.20;;;9.80;;
5225;SDS011;2632;51.666;7.146;2023-02-15T16:19:38;24.10;;;10.83;;
5225;SDS011;2632;51.666;7.146;2023-02-15T16:22:11;21.57;;;9.83;;
5225;SDS011;2632;51.666;7.146;2023-02-15T16:27:14;22.83;;;11.60;;
5225;SDS011;2632;51.666;7.146;2023-02-15T16:29:57;27.97;;;11.60;;
5225;SDS011;2632;51.666;7.146;2023-02-15T16:32:24;31.33;;;11.73;;
5225;SDS011;2632;51.666;7.146;2023-02-15T16:34:54;24.00;;;11.37;;
5225;SDS011;2632;51.666;7.146;2023-02-15T16:37:23;22.13;;;10.30;;
5225;SDS011;2632;51.666;7.146;2023-02-15T16:39:57;21.37;;;9.50;;
5225;SDS011;2632;51.666;7.146;2023-02-15T16:42:24;22.80;;;11.20;;
5225;SDS011;2632;51.666;7.146;2023-02-15T16:44:53;26.77;;;11.23;;
5225;SDS011;2632;51.666;7.146;2023-02-15T16:47:24;26.87;;;11.57;;
5225;SDS011;2632;51.666;7.146;2023-02-15T16:49:53;25.37;;;11.23;;
5225;SDS011;2632;51.666;7.146;2023-02-15T16:52:23;26.30;;;12.50;;
5225;SDS011;2632;51.666;7.146;2023-02-15T16:54:58;31.33;;;12.97;;
5225;SDS011;2632;51.666;7.146;2023-02-15T16:57:28;29.87;;;13.20;;
5225;SDS011;2632;51.666;7.146;2023-02-15T17:00:01;26.67;;;12.60;;
5225;SDS011;2632;51.666;7.146;2023-02-15T17:03:03;23.77;;;11.37;;
5225;SDS011;2632;51.666;7.146;2023-02-15T17:05:40;27.27;;;12.07;;
5225;SDS011;2632;51.666;7.146;2023-02-15T17:13:24;28.07;;;12.30;;
5225;SDS011;2632;51.666;7.146;2023-02-15T17:18:26;34.20;;;12.80;;
5225;SDS011;2632;51.666;7.146;2023-02-15T17:20:54;31.03;;;12.90;;
5225;SDS011;2632;51.666;7.146;2023-02-15T17:25:57;29.70;;;13.07;;
5225;SDS011;2632;51.666;7.146;2023-02-15T17:28:27;23.23;;;11.83;;
5225;SDS011;2632;51.666;7.146;2023-02-15T17:30:56;28.97;;;12.60;;
5225;SDS011;2632;51.666;7.146;2023-02-15T17:38:35;23.57;;;11.73;;
5225;SDS011;2632;51.666;7.146;2023-02-15T17:41:03;29.77;;;14.40;;
5225;SDS011;2632;51.666;7.146;2023-02-15T17:43:30;28.63;;;12.53;;
5225;SDS011;2632;51.666;7.146;2023-02-15T17:45:57;30.93;;;14.73;;
5225;SDS011;2632;51.666;7.146;2023-02-15T17:48:34;29.50;;;12.93;;
5225;SDS011;2632;51.666;7.146;2023-02-15T17:51:02;26.77;;;13.43;;